sensor_id;sensor_type;location;lat;lon;timestamp;temperature;humidity
64817;DHT22;53289;45.602;11.904;2022-09-13T00:00:48;17.20;80.20
64817;DHT22;53289;45.602;11.904;2022-09-13T00:03:14;17.20;80.50
64817;DHT22;53289;45.602;11.904;2022-09-13T00:05:40;17.20;80.90
64817;DHT22;53289;45.602;11.904;2022-09-13T00:08:07;17.20;80.50
64817;DHT22;53289;45.602;11.904;2022-09-13T00:10:37;17.20;80.50
64817;DHT22;53289;45.602;11.904;2022-09-13T00:13:06;17.20;80.60
64817;DHT22;53289;45.602;11.904;2022-09-13T00:15:34;17.20;80.80
64817;DHT22;53289;45.602;11.904;2022-09-13T00:18:03;17.20;81.00
64817;DHT22;53289;45.602;11.904;2022-09-13T00:20:28;17.20;80.90
64817;DHT22;53289;45.602;11.904;2022-09-13T00:22:54;17.10;80.90
64817;DHT22;53289;45.602;11.904;2022-09-13T00:25:20;17.10;81.40
64817;DHT22;53289;45.602;11.904;2022-09-13T00:27:46;17.00;81.00
64817;DHT22;53289;45.602;11.904;2022-09-13T00:30:12;17.10;80.90
64817;DHT22;53289;45.602;11.904;2022-09-13T00:32:39;17.00;81.10
64817;DHT22;53289;45.602;11.904;2022-09-13T00:35:05;17.00;80.90
64817;DHT22;53289;45.602;11.904;2022-09-13T00:37:31;17.00;80.90
64817;DHT22;53289;45.602;11.904;2022-09-13T00:40:01;17.10;80.90
64817;DHT22;53289;45.602;11.904;2022-09-13T00:42:29;17.00;80.80
64817;DHT22;53289;45.602;11.904;2022-09-13T00:50:37;16.90;80.80
64817;DHT22;53289;45.602;11.904;2022-09-13T00:58:31;16.90;81.30
64817;DHT22;53289;45.602;11.904;2022-09-13T01:00:59;16.90;81.20
64817;DHT22;53289;45.602;11.904;2022-09-13T01:03:29;16.90;81.10
64817;DHT22;53289;45.602;11.904;2022-09-13T01:06:07;16.90;81.00
64817;DHT22;53289;45.602;11.904;2022-09-13T01:08:36;16.90;81.00
64817;DHT22;53289;45.602;11.904;2022-09-13T01:11:05;16.90;80.90
64817;DHT22;53289;45.602;11.904;2022-09-13T01:13:33;16.80;80.90
64817;DHT22;53289;45.602;11.904;2022-09-13T01:16:01;16.80;81.10
64817;DHT22;53289;45.602;11.904;2022-09-13T01:18:27;16.70;81.10
64817;DHT22;53289;45.602;11.904;2022-09-13T01:46:20;16.40;81.70
64817;DHT22;53289;45.602;11.904;2022-09-13T01:52:12;16.30;82.50
64817;DHT22;53289;45.602;11.904;2022-09-13T01:54:55;16.30;82.40
64817;DHT22;53289;45.602;11.904;2022-09-13T01:57:31;16.30;82.30
64817;DHT22;53289;45.602;11.904;2022-09-13T02:00:05;16.30;82.20
64817;DHT22;53289;45.602;11.904;2022-09-13T02:02:44;16.30;82.00
64817;DHT22;53289;45.602;11.904;2022-09-13T02:11:10;16.20;82.10
64817;DHT22;53289;45.602;11.904;2022-09-13T02:13:45;16.20;81.90
64817;DHT22;53289;45.602;11.904;2022-09-13T02:16:25;16.20;82.00
64817;DHT22;53289;45.602;11.904;2022-09-13T02:18:55;16.20;82.10
64817;DHT22;53289;45.602;11.904;2022-09-13T02:21:29;16.10;82.30
64817;DHT22;53289;45.602;11.904;2022-09-13T02:23:59;16.10;82.20
64817;DHT22;53289;45.602;11.904;2022-09-13T02:26:27;16.00;82.70
64817;DHT22;53289;45.602;11.904;2022-09-13T02:28:56;16.00;82.40
64817;DHT22;53289;45.602;11.904;2022-09-13T02:31:34;16.00;82.00
64817;DHT22;53289;45.602;11.904;2022-09-13T02:34:50;16.00;82.00
64817;DHT22;53289;45.602;11.904;2022-09-13T02:36:57;16.00;82.00
64817;DHT22;53289;45.602;11.904;2022-09-13T02:39:26;16.00;82.20
64817;DHT22;53289;45.602;11.904;2022-09-13T02:42:02;15.90;83.00
64817;DHT22;53289;45.602;11.904;2022-09-13T02:44:42;15.90;82.40
64817;DHT22;53289;45.602;11.904;2022-09-13T02:55:25;15.80;82.60
64817;DHT22;53289;45.602;11.904;2022-09-13T02:58:01;15.70;82.40
64817;DHT22;53289;45.602;11.904;2022-09-13T03:00:29;15.80;82.70
64817;DHT22;53289;45.602;11.904;2022-09-13T03:02:58;15.70;82.40
64817;DHT22;53289;45.602;11.904;2022-09-13T03:05:24;15.80;82.60
64817;DHT22;53289;45.602;11.904;2022-09-13T03:07:51;15.70;82.60
64817;DHT22;53289;45.602;11.904;2022-09-13T03:10:17;15.70;82.80
64817;DHT22;53289;45.602;11.904;2022-09-13T03:21:34;15.70;83.30
64817;DHT22;53289;45.602;11.904;2022-09-13T03:24:32;15.60;83.10
64817;DHT22;53289;45.602;11.904;2022-09-13T03:30:08;15.60;83.00
64817;DHT22;53289;45.602;11.904;2022-09-13T03:32:59;15.60;83.00
64817;DHT22;53289;45.602;11.904;2022-09-13T03:35:40;15.60;82.90
64817;DHT22;53289;45.602;11.904;2022-09-13T03:38:12;15.60;82.80
64817;DHT22;53289;45.602;11.904;2022-09-13T03:43:19;15.60;83.00
64817;DHT22;53289;45.602;11.904;2022-09-13T03:45:57;15.50;82.80
64817;DHT22;53289;45.602;11.904;2022-09-13T03:48:24;15.50;82.70
64817;DHT22;53289;45.602;11.904;2022-09-13T03:50:52;15.50;82.70
64817;DHT22;53289;45.602;11.904;2022-09-13T03:53:24;15.60;82.60
64817;DHT22;53289;45.602;11.904;2022-09-13T03:55:51;15.50;82.70
64817;DHT22;53289;45.602;11.904;2022-09-13T03:58:18;15.50;82.90
64817;DHT22;53289;45.602;11.904;2022-09-13T04:00:45;15.50;83.00
64817;DHT22;53289;45.602;11.904;2022-09-13T04:03:12;15.50;83.00
64817;DHT22;53289;45.602;11.904;2022-09-13T04:05:39;15.40;83.10
64817;DHT22;53289;45.602;11.904;2022-09-13T04:08:06;15.40;83.20
64817;DHT22;53289;45.602;11.904;2022-09-13T04:10:34;15.40;83.20
64817;DHT22;53289;45.602;11.904;2022-09-13T04:13:01;15.40;83.20
64817;DHT22;53289;45.602;11.904;2022-09-13T04:15:27;15.40;83.40
64817;DHT22;53289;45.602;11.904;2022-09-13T04:17:55;15.40;83.40
64817;DHT22;53289;45.602;11.904;2022-09-13T04:20:22;15.40;83.30
64817;DHT22;53289;45.602;11.904;2022-09-13T04:22:53;15.40;83.10
64817;DHT22;53289;45.602;11.904;2022-09-13T04:25:21;15.40;83.30
64817;DHT22;53289;45.602;11.904;2022-09-13T04:27:52;15.40;83.40
64817;DHT22;53289;45.602;11.904;2022-09-13T04:30:18;15.40;83.40
64817;DHT22;53289;45.602;11.904;2022-09-13T04:32:44;15.50;83.50
64817;DHT22;53289;45.602;11.904;2022-09-13T04:35:10;15.50;83.70
64817;DHT22;53289;45.602;11.904;2022-09-13T04:37:37;15.50;83.60
64817;DHT22;53289;45.602;11.904;2022-09-13T04:40:05;15.50;83.70
64817;DHT22;53289;45.602;11.904;2022-09-13T04:42:32;15.50;83.70
64817;DHT22;53289;45.602;11.904;2022-09-13T04:44:58;15.50;83.60
64817;DHT22;53289;45.602;11.904;2022-09-13T04:47:24;15.60;83.70
64817;DHT22;53289;45.602;11.904;2022-09-13T04:49:50;15.60;83.80
64817;DHT22;53289;45.602;11.904;2022-09-13T04:52:16;15.70;83.70
64817;DHT22;53289;45.602;11.904;2022-09-13T04:54:42;15.80;83.70
64817;DHT22;53289;45.602;11.904;2022-09-13T04:57:08;15.90;83.40
64817;DHT22;53289;45.602;11.904;2022-09-13T04:59:34;15.90;83.50
64817;DHT22;53289;45.602;11.904;2022-09-13T05:02:00;15.90;83.70
64817;DHT22;53289;45.602;11.904;2022-09-13T05:04:26;16.00;83.60
64817;DHT22;53289;45.602;11.904;2022-09-13T05:06:52;16.10;83.60
64817;DHT22;53289;45.602;11.904;2022-09-13T05:09:18;16.20;84.00
64817;DHT22;53289;45.602;11.904;2022-09-13T05:11:44;16.20;84.00
64817;DHT22;53289;45.602;11.904;2022-09-13T05:14:11;16.30;83.80
64817;DHT22;53289;45.602;11.904;2022-09-13T05:16:37;16.30;83.80
64817;DHT22;53289;45.602;11.904;2022-09-13T05:19:03;16.40;84.00
64817;DHT22;53289;45.602;11.904;2022-09-13T05:21:30;16.40;83.80
64817;DHT22;53289;45.602;11.904;2022-09-13T05:23:57;16.40;83.70
64817;DHT22;53289;45.602;11.904;2022-09-13T05:26:25;16.50;83.60
64817;DHT22;53289;45.602;11.904;2022-09-13T05:28:52;16.60;83.40
64817;DHT22;53289;45.602;11.904;2022-09-13T05:31:20;16.60;83.40
64817;DHT22;53289;45.602;11.904;2022-09-13T05:33:52;16.70;83.50
64817;DHT22;53289;45.602;11.904;2022-09-13T05:36:18;16.80;83.30
64817;DHT22;53289;45.602;11.904;2022-09-13T05:38:45;16.80;83.20
64817;DHT22;53289;45.602;11.904;2022-09-13T05:41:11;16.90;83.10
64817;DHT22;53289;45.602;11.904;2022-09-13T05:43:37;16.90;83.40
64817;DHT22;53289;45.602;11.904;2022-09-13T05:46:15;17.00;83.20
64817;DHT22;53289;45.602;11.904;2022-09-13T05:48:41;17.00;82.80
64817;DHT22;53289;45.602;11.904;2022-09-13T05:51:19;17.10;82.90
64817;DHT22;53289;45.602;11.904;2022-09-13T05:53:47;17.10;83.10
64817;DHT22;53289;45.602;11.904;2022-09-13T05:56:15;17.20;83.00
64817;DHT22;53289;45.602;11.904;2022-09-13T05:58:44;17.20;82.70
64817;DHT22;53289;45.602;11.904;2022-09-13T06:01:11;17.30;82.50
64817;DHT22;53289;45.602;11.904;2022-09-13T06:03:38;17.30;82.40
64817;DHT22;53289;45.602;11.904;2022-09-13T06:06:05;17.40;82.40
64817;DHT22;53289;45.602;11.904;2022-09-13T06:08:32;17.40;82.30
64817;DHT22;53289;45.602;11.904;2022-09-13T06:11:03;17.50;82.30
64817;DHT22;53289;45.602;11.904;2022-09-13T06:13:30;17.60;82.30
64817;DHT22;53289;45.602;11.904;2022-09-13T06:15:57;17.70;82.10
64817;DHT22;53289;45.602;11.904;2022-09-13T06:18:24;17.80;82.00
64817;DHT22;53289;45.602;11.904;2022-09-13T06:20:56;17.90;81.80
64817;DHT22;53289;45.602;11.904;2022-09-13T06:23:24;18.00;81.60
64817;DHT22;53289;45.602;11.904;2022-09-13T06:26:01;18.20;81.70
64817;DHT22;53289;45.602;11.904;2022-09-13T06:28:28;18.30;81.50
64817;DHT22;53289;45.602;11.904;2022-09-13T06:31:05;18.40;81.70
64817;DHT22;53289;45.602;11.904;2022-09-13T06:33:32;18.40;81.70
64817;DHT22;53289;45.602;11.904;2022-09-13T06:36:07;18.60;81.40
64817;DHT22;53289;45.602;11.904;2022-09-13T06:38:33;18.60;81.00
64817;DHT22;53289;45.602;11.904;2022-09-13T06:41:04;18.70;80.90
64817;DHT22;53289;45.602;11.904;2022-09-13T06:43:31;18.70;80.90
64817;DHT22;53289;45.602;11.904;2022-09-13T06:46:02;18.90;80.70
64817;DHT22;53289;45.602;11.904;2022-09-13T06:48:34;19.00;80.90
64817;DHT22;53289;45.602;11.904;2022-09-13T06:51:03;19.20;81.40
64817;DHT22;53289;45.602;11.904;2022-09-13T06:53:29;19.40;80.90
64817;DHT22;53289;45.602;11.904;2022-09-13T06:56:07;19.60;80.50
64817;DHT22;53289;45.602;11.904;2022-09-13T06:58:35;19.90;79.60
64817;DHT22;53289;45.602;11.904;2022-09-13T07:01:13;20.00;79.50
64817;DHT22;53289;45.602;11.904;2022-09-13T07:04:03;20.40;79.00
64817;DHT22;53289;45.602;11.904;2022-09-13T07:06:30;20.60;77.70
64817;DHT22;53289;45.602;11.904;2022-09-13T07:08:58;20.90;77.40
64817;DHT22;53289;45.602;11.904;2022-09-13T07:11:28;21.20;76.80
64817;DHT22;53289;45.602;11.904;2022-09-13T07:13:56;21.50;75.40
64817;DHT22;53289;45.602;11.904;2022-09-13T07:16:28;21.80;75.10
64817;DHT22;53289;45.602;11.904;2022-09-13T07:18:57;22.00;74.60
64817;DHT22;53289;45.602;11.904;2022-09-13T07:21:24;22.30;73.50
64817;DHT22;53289;45.602;11.904;2022-09-13T07:23:51;22.60;72.50
64817;DHT22;53289;45.602;11.904;2022-09-13T07:26:18;22.80;71.80
64817;DHT22;53289;45.602;11.904;2022-09-13T07:28:47;22.90;70.50
64817;DHT22;53289;45.602;11.904;2022-09-13T07:31:16;23.20;70.10
64817;DHT22;53289;45.602;11.904;2022-09-13T07:33:43;23.30;70.20
64817;DHT22;53289;45.602;11.904;2022-09-13T07:36:11;23.50;69.70
64817;DHT22;53289;45.602;11.904;2022-09-13T07:38:39;23.70;69.60
64817;DHT22;53289;45.602;11.904;2022-09-13T07:41:07;23.80;68.00
64817;DHT22;53289;45.602;11.904;2022-09-13T07:43:35;23.80;67.40
64817;DHT22;53289;45.602;11.904;2022-09-13T07:46:06;23.90;67.50
64817;DHT22;53289;45.602;11.904;2022-09-13T07:48:35;23.90;67.10
64817;DHT22;53289;45.602;11.904;2022-09-13T07:53:36;24.20;67.90
64817;DHT22;53289;45.602;11.904;2022-09-13T07:56:07;24.30;67.50
64817;DHT22;53289;45.602;11.904;2022-09-13T07:58:34;24.50;66.80
64817;DHT22;53289;45.602;11.904;2022-09-13T08:01:07;24.70;65.80
64817;DHT22;53289;45.602;11.904;2022-09-13T08:03:34;24.90;65.00
64817;DHT22;53289;45.602;11.904;2022-09-13T08:06:01;25.20;64.20
64817;DHT22;53289;45.602;11.904;2022-09-13T08:08:28;25.30;64.00
64817;DHT22;53289;45.602;11.904;2022-09-13T08:10:53;25.50;63.50
64817;DHT22;53289;45.602;11.904;2022-09-13T08:13:19;25.70;63.30
64817;DHT22;53289;45.602;11.904;2022-09-13T08:15:45;25.90;62.60
64817;DHT22;53289;45.602;11.904;2022-09-13T08:18:14;26.10;61.70
64817;DHT22;53289;45.602;11.904;2022-09-13T08:20:41;26.10;61.90
64817;DHT22;53289;45.602;11.904;2022-09-13T08:23:08;26.20;61.50
64817;DHT22;53289;45.602;11.904;2022-09-13T08:25:35;26.30;61.40
64817;DHT22;53289;45.602;11.904;2022-09-13T08:28:13;26.40;61.10
64817;DHT22;53289;45.602;11.904;2022-09-13T08:30:39;26.60;61.20
64817;DHT22;53289;45.602;11.904;2022-09-13T08:33:06;26.80;59.90
64817;DHT22;53289;45.602;11.904;2022-09-13T08:35:33;27.00;59.90
64817;DHT22;53289;45.602;11.904;2022-09-13T08:37:59;27.30;59.50
64817;DHT22;53289;45.602;11.904;2022-09-13T08:40:29;27.50;59.30
64817;DHT22;53289;45.602;11.904;2022-09-13T08:46:00;27.80;55.40
64817;DHT22;53289;45.602;11.904;2022-09-13T08:48:33;27.90;57.30
64817;DHT22;53289;45.602;11.904;2022-09-13T08:51:05;28.10;55.40
64817;DHT22;53289;45.602;11.904;2022-09-13T08:53:43;28.20;56.30
64817;DHT22;53289;45.602;11.904;2022-09-13T08:56:11;28.40;54.70
64817;DHT22;53289;45.602;11.904;2022-09-13T09:01:59;28.90;54.60
64817;DHT22;53289;45.602;11.904;2022-09-13T09:04:50;29.10;53.80
64817;DHT22;53289;45.602;11.904;2022-09-13T09:07:23;28.90;51.90
64817;DHT22;53289;45.602;11.904;2022-09-13T09:09:54;28.90;54.20
64817;DHT22;53289;45.602;11.904;2022-09-13T09:20:44;29.60;51.30
64817;DHT22;53289;45.602;11.904;2022-09-13T09:23:24;29.80;52.10
64817;DHT22;53289;45.602;11.904;2022-09-13T09:28:39;30.20;51.70
64817;DHT22;53289;45.602;11.904;2022-09-13T09:31:39;30.40;51.50
64817;DHT22;53289;45.602;11.904;2022-09-13T09:39:29;31.00;48.80
64817;DHT22;53289;45.602;11.904;2022-09-13T09:41:58;31.20;48.20
64817;DHT22;53289;45.602;11.904;2022-09-13T09:44:30;31.40;48.00
64817;DHT22;53289;45.602;11.904;2022-09-13T09:50:08;31.90;45.40
64817;DHT22;53289;45.602;11.904;2022-09-13T10:00:19;32.50;43.90
64817;DHT22;53289;45.602;11.904;2022-09-13T10:02:47;32.50;43.70
64817;DHT22;53289;45.602;11.904;2022-09-13T10:05:18;32.30;44.10
64817;DHT22;53289;45.602;11.904;2022-09-13T10:07:55;32.00;44.80
64817;DHT22;53289;45.602;11.904;2022-09-13T10:11:10;31.90;45.40
64817;DHT22;53289;45.602;11.904;2022-09-13T10:13:21;32.20;45.10
64817;DHT22;53289;45.602;11.904;2022-09-13T10:16:01;32.40;44.20
64817;DHT22;53289;45.602;11.904;2022-09-13T10:18:32;32.70;44.40
64817;DHT22;53289;45.602;11.904;2022-09-13T10:21:08;32.90;43.70
64817;DHT22;53289;45.602;11.904;2022-09-13T10:23:46;33.10;43.40
64817;DHT22;53289;45.602;11.904;2022-09-13T10:26:23;33.50;41.40
64817;DHT22;53289;45.602;11.904;2022-09-13T10:29:07;33.70;39.50
64817;DHT22;53289;45.602;11.904;2022-09-13T10:31:36;33.90;40.10
64817;DHT22;53289;45.602;11.904;2022-09-13T10:36:37;33.70;39.70
64817;DHT22;53289;45.602;11.904;2022-09-13T10:39:28;33.30;40.10
64817;DHT22;53289;45.602;11.904;2022-09-13T10:42:01;32.70;41.10
64817;DHT22;53289;45.602;11.904;2022-09-13T10:44:45;32.60;42.50
64817;DHT22;53289;45.602;11.904;2022-09-13T10:47:23;32.80;42.20
64817;DHT22;53289;45.602;11.904;2022-09-13T10:49:55;33.30;41.90
64817;DHT22;53289;45.602;11.904;2022-09-13T10:52:26;33.70;40.70
64817;DHT22;53289;45.602;11.904;2022-09-13T10:54:54;34.20;38.60
64817;DHT22;53289;45.602;11.904;2022-09-13T10:57:36;34.60;37.30
64817;DHT22;53289;45.602;11.904;2022-09-13T11:00:06;34.80;37.10
64817;DHT22;53289;45.602;11.904;2022-09-13T11:13:49;35.80;35.40
64817;DHT22;53289;45.602;11.904;2022-09-13T11:31:12;34.00;38.70
64817;DHT22;53289;45.602;11.904;2022-09-13T11:45:47;35.60;37.30
64817;DHT22;53289;45.602;11.904;2022-09-13T11:48:39;36.30;35.90
64817;DHT22;53289;45.602;11.904;2022-09-13T11:56:58;37.30;34.00
64817;DHT22;53289;45.602;11.904;2022-09-13T12:04:59;38.10;32.00
64817;DHT22;53289;45.602;11.904;2022-09-13T12:07:39;38.00;33.00
64817;DHT22;53289;45.602;11.904;2022-09-13T12:10:21;38.00;33.50
64817;DHT22;53289;45.602;11.904;2022-09-13T12:12:50;37.80;33.70
64817;DHT22;53289;45.602;11.904;2022-09-13T12:15:39;37.60;34.50
64817;DHT22;53289;45.602;11.904;2022-09-13T12:19:06;37.90;34.20
64817;DHT22;53289;45.602;11.904;2022-09-13T12:21:20;38.50;32.80
64817;DHT22;53289;45.602;11.904;2022-09-13T12:24:14;39.00;32.00
64817;DHT22;53289;45.602;11.904;2022-09-13T12:26:44;38.90;30.40
64817;DHT22;53289;45.602;11.904;2022-09-13T12:31:46;37.90;32.50
64817;DHT22;53289;45.602;11.904;2022-09-13T13:02:20;36.90;32.80
64817;DHT22;53289;45.602;11.904;2022-09-13T13:04:51;37.20;33.00
64817;DHT22;53289;45.602;11.904;2022-09-13T13:07:22;37.70;32.80
64817;DHT22;53289;45.602;11.904;2022-09-13T13:09:51;38.00;32.70
64817;DHT22;53289;45.602;11.904;2022-09-13T13:14:50;38.60;32.20
64817;DHT22;53289;45.602;11.904;2022-09-13T13:23:31;38.40;32.40
64817;DHT22;53289;45.602;11.904;2022-09-13T13:34:24;38.80;32.10
64817;DHT22;53289;45.602;11.904;2022-09-13T13:36:50;38.90;32.30
64817;DHT22;53289;45.602;11.904;2022-09-13T13:42:12;38.90;31.80
64817;DHT22;53289;45.602;11.904;2022-09-13T13:45:14;39.00;32.20
64817;DHT22;53289;45.602;11.904;2022-09-13T13:48:07;39.00;31.30
64817;DHT22;53289;45.602;11.904;2022-09-13T13:50:34;39.00;32.10
64817;DHT22;53289;45.602;11.904;2022-09-13T13:53:21;38.80;32.40
64817;DHT22;53289;45.602;11.904;2022-09-13T13:55:48;38.60;32.10
64817;DHT22;53289;45.602;11.904;2022-09-13T13:59:09;38.00;32.80
64817;DHT22;53289;45.602;11.904;2022-09-13T14:01:44;37.30;33.10
64817;DHT22;53289;45.602;11.904;2022-09-13T14:13:17;35.40;36.20
64817;DHT22;53289;45.602;11.904;2022-09-13T14:16:16;35.20;36.40
64817;DHT22;53289;45.602;11.904;2022-09-13T14:21:35;34.40;37.40
64817;DHT22;53289;45.602;11.904;2022-09-13T14:24:19;34.20;37.70
64817;DHT22;53289;45.602;11.904;2022-09-13T14:26:47;34.30;37.70
64817;DHT22;53289;45.602;11.904;2022-09-13T14:29:19;34.50;37.50
64817;DHT22;53289;45.602;11.904;2022-09-13T14:31:50;34.80;37.30
64817;DHT22;53289;45.602;11.904;2022-09-13T14:34:26;35.10;37.00
64817;DHT22;53289;45.602;11.904;2022-09-13T14:36:55;35.00;38.80
64817;DHT22;53289;45.602;11.904;2022-09-13T14:39:22;35.20;39.60
64817;DHT22;53289;45.602;11.904;2022-09-13T14:42:01;34.50;41.90
64817;DHT22;53289;45.602;11.904;2022-09-13T14:44:28;33.70;43.40
64817;DHT22;53289;45.602;11.904;2022-09-13T14:50:17;33.30;44.40
64817;DHT22;53289;45.602;11.904;2022-09-13T14:52:50;33.10;44.40
64817;DHT22;53289;45.602;11.904;2022-09-13T14:55:23;33.20;44.30
64817;DHT22;53289;45.602;11.904;2022-09-13T14:57:59;33.00;44.60
64817;DHT22;53289;45.602;11.904;2022-09-13T15:00:30;33.10;45.00
64817;DHT22;53289;45.602;11.904;2022-09-13T15:03:04;33.00;44.80
64817;DHT22;53289;45.602;11.904;2022-09-13T15:05:36;32.60;45.80
64817;DHT22;53289;45.602;11.904;2022-09-13T15:10:57;33.10;45.00
64817;DHT22;53289;45.602;11.904;2022-09-13T15:13:24;33.10;44.80
64817;DHT22;53289;45.602;11.904;2022-09-13T15:15:51;32.80;45.20
64817;DHT22;53289;45.602;11.904;2022-09-13T15:23:34;33.00;44.70
64817;DHT22;53289;45.602;11.904;2022-09-13T15:26:05;33.00;44.20
64817;DHT22;53289;45.602;11.904;2022-09-13T15:31:19;32.90;44.70
64817;DHT22;53289;45.602;11.904;2022-09-13T15:33:46;32.90;45.00
64817;DHT22;53289;45.602;11.904;2022-09-13T15:41:39;32.30;45.70
64817;DHT22;53289;45.602;11.904;2022-09-13T15:44:08;31.90;45.90
64817;DHT22;53289;45.602;11.904;2022-09-13T15:46:47;31.40;46.70
64817;DHT22;53289;45.602;11.904;2022-09-13T15:49:19;31.00;48.10
64817;DHT22;53289;45.602;11.904;2022-09-13T15:51:46;30.60;48.80
64817;DHT22;53289;45.602;11.904;2022-09-13T15:54:16;30.40;48.90
64817;DHT22;53289;45.602;11.904;2022-09-13T15:56:46;30.30;49.10
64817;DHT22;53289;45.602;11.904;2022-09-13T15:59:19;30.30;49.50
64817;DHT22;53289;45.602;11.904;2022-09-13T16:01:50;30.10;49.90
64817;DHT22;53289;45.602;11.904;2022-09-13T16:04:16;29.90;50.10
64817;DHT22;53289;45.602;11.904;2022-09-13T16:06:42;29.90;50.10
64817;DHT22;53289;45.602;11.904;2022-09-13T16:09:19;30.00;50.00
64817;DHT22;53289;45.602;11.904;2022-09-13T16:11:46;29.90;50.00
64817;DHT22;53289;45.602;11.904;2022-09-13T16:14:13;30.00;49.90
64817;DHT22;53289;45.602;11.904;2022-09-13T16:16:39;30.10;49.60
64817;DHT22;53289;45.602;11.904;2022-09-13T16:19:14;30.20;49.40
64817;DHT22;53289;45.602;11.904;2022-09-13T16:21:40;30.00;49.60
64817;DHT22;53289;45.602;11.904;2022-09-13T16:24:06;29.80;50.00
64817;DHT22;53289;45.602;11.904;2022-09-13T16:26:33;29.70;50.20
64817;DHT22;53289;45.602;11.904;2022-09-13T16:28:59;29.80;50.40
64817;DHT22;53289;45.602;11.904;2022-09-13T16:31:25;29.60;50.60
64817;DHT22;53289;45.602;11.904;2022-09-13T16:33:51;29.50;51.00
64817;DHT22;53289;45.602;11.904;2022-09-13T16:36:17;29.30;51.50
64817;DHT22;53289;45.602;11.904;2022-09-13T16:38:43;29.10;51.80
64817;DHT22;53289;45.602;11.904;2022-09-13T16:41:09;29.00;52.30
64817;DHT22;53289;45.602;11.904;2022-09-13T16:43:36;28.90;52.50
64817;DHT22;53289;45.602;11.904;2022-09-13T16:46:09;28.70;52.80
64817;DHT22;53289;45.602;11.904;2022-09-13T16:48:35;28.60;53.10
64817;DHT22;53289;45.602;11.904;2022-09-13T16:51:06;28.40;53.40
64817;DHT22;53289;45.602;11.904;2022-09-13T16:53:37;28.40;53.70
64817;DHT22;53289;45.602;11.904;2022-09-13T16:56:10;28.20;54.00
64817;DHT22;53289;45.602;11.904;2022-09-13T16:58:38;28.00;54.30
64817;DHT22;53289;45.602;11.904;2022-09-13T17:01:09;27.90;54.50
64817;DHT22;53289;45.602;11.904;2022-09-13T17:03:36;27.80;55.00
64817;DHT22;53289;45.602;11.904;2022-09-13T17:06:05;27.60;55.20
64817;DHT22;53289;45.602;11.904;2022-09-13T17:08:32;27.50;55.40
64817;DHT22;53289;45.602;11.904;2022-09-13T17:10:59;27.40;55.70
64817;DHT22;53289;45.602;11.904;2022-09-13T17:13:25;27.20;56.20
64817;DHT22;53289;45.602;11.904;2022-09-13T17:15:51;27.00;57.00
64817;DHT22;53289;45.602;11.904;2022-09-13T17:18:17;26.90;57.30
64817;DHT22;53289;45.602;11.904;2022-09-13T17:20:44;26.80;57.60
64817;DHT22;53289;45.602;11.904;2022-09-13T17:23:11;26.60;57.90
64817;DHT22;53289;45.602;11.904;2022-09-13T17:25:40;26.50;58.10
64817;DHT22;53289;45.602;11.904;2022-09-13T17:28:08;26.30;58.40
64817;DHT22;53289;45.602;11.904;2022-09-13T17:30:34;26.20;59.00
64817;DHT22;53289;45.602;11.904;2022-09-13T17:33:00;26.00;59.20
64817;DHT22;53289;45.602;11.904;2022-09-13T17:35:27;26.00;59.50
64817;DHT22;53289;45.602;11.904;2022-09-13T17:37:54;25.80;59.80
64817;DHT22;53289;45.602;11.904;2022-09-13T17:40:20;25.70;60.20
64817;DHT22;53289;45.602;11.904;2022-09-13T17:42:46;25.60;60.40
64817;DHT22;53289;45.602;11.904;2022-09-13T17:45:13;25.50;60.70
64817;DHT22;53289;45.602;11.904;2022-09-13T17:47:40;25.30;60.90
64817;DHT22;53289;45.602;11.904;2022-09-13T17:50:06;25.20;61.10
64817;DHT22;53289;45.602;11.904;2022-09-13T17:52:33;25.10;61.50
64817;DHT22;53289;45.602;11.904;2022-09-13T17:54:59;25.00;61.90
64817;DHT22;53289;45.602;11.904;2022-09-13T17:57:25;24.90;62.20
64817;DHT22;53289;45.602;11.904;2022-09-13T17:59:52;24.90;62.30
64817;DHT22;53289;45.602;11.904;2022-09-13T18:02:20;24.80;62.60
64817;DHT22;53289;45.602;11.904;2022-09-13T18:04:49;24.70;62.60
64817;DHT22;53289;45.602;11.904;2022-09-13T18:07:18;24.70;62.70
64817;DHT22;53289;45.602;11.904;2022-09-13T18:09:44;24.50;63.60
64817;DHT22;53289;45.602;11.904;2022-09-13T18:12:11;24.40;63.90
64817;DHT22;53289;45.602;11.904;2022-09-13T18:14:37;24.30;64.40
64817;DHT22;53289;45.602;11.904;2022-09-13T18:17:04;24.20;64.50
64817;DHT22;53289;45.602;11.904;2022-09-13T18:19:38;24.10;64.60
64817;DHT22;53289;45.602;11.904;2022-09-13T18:22:06;24.10;64.60
64817;DHT22;53289;45.602;11.904;2022-09-13T18:24:32;24.10;64.60
64817;DHT22;53289;45.602;11.904;2022-09-13T18:27:00;24.10;64.40
64817;DHT22;53289;45.602;11.904;2022-09-13T18:29:26;24.10;64.40
64817;DHT22;53289;45.602;11.904;2022-09-13T18:31:54;24.10;64.50
64817;DHT22;53289;45.602;11.904;2022-09-13T18:34:20;24.00;64.60
64817;DHT22;53289;45.602;11.904;2022-09-13T18:36:46;23.90;64.90
64817;DHT22;53289;45.602;11.904;2022-09-13T18:39:17;23.90;65.20
64817;DHT22;53289;45.602;11.904;2022-09-13T18:41:45;23.80;65.40
64817;DHT22;53289;45.602;11.904;2022-09-13T18:44:13;23.80;65.80
64817;DHT22;53289;45.602;11.904;2022-09-13T18:46:40;23.70;65.80
64817;DHT22;53289;45.602;11.904;2022-09-13T18:49:08;23.50;65.90
64817;DHT22;53289;45.602;11.904;2022-09-13T18:51:41;23.40;66.40
64817;DHT22;53289;45.602;11.904;2022-09-13T18:54:13;23.40;66.70
64817;DHT22;53289;45.602;11.904;2022-09-13T18:56:40;23.20;67.20
64817;DHT22;53289;45.602;11.904;2022-09-13T18:59:07;23.10;67.30
64817;DHT22;53289;45.602;11.904;2022-09-13T19:01:36;23.00;67.50
64817;DHT22;53289;45.602;11.904;2022-09-13T19:04:14;22.90;68.10
64817;DHT22;53289;45.602;11.904;2022-09-13T19:09:10;22.80;68.60
64817;DHT22;53289;45.602;11.904;2022-09-13T19:11:39;22.80;68.70
64817;DHT22;53289;45.602;11.904;2022-09-13T19:14:07;22.70;69.00
64817;DHT22;53289;45.602;11.904;2022-09-13T19:16:34;22.60;69.10
64817;DHT22;53289;45.602;11.904;2022-09-13T19:19:00;22.60;69.10
64817;DHT22;53289;45.602;11.904;2022-09-13T19:21:29;22.60;69.20
64817;DHT22;53289;45.602;11.904;2022-09-13T19:23:56;22.60;69.60
64817;DHT22;53289;45.602;11.904;2022-09-13T19:26:24;22.60;69.80
64817;DHT22;53289;45.602;11.904;2022-09-13T19:28:55;22.50;70.10
64817;DHT22;53289;45.602;11.904;2022-09-13T19:31:25;22.50;70.40
64817;DHT22;53289;45.602;11.904;2022-09-13T19:33:55;22.40;70.20
64817;DHT22;53289;45.602;11.904;2022-09-13T19:36:24;22.40;70.40